Time;durP1;ratioP1;P1;durP2;ratioP2;P2;SDS_P1;SDS_P2;PMS_P1;PMS_P2;Temp;Humidity;BMP_temperature;BMP_pressure;BME280_temperature;BME280_humidity;BME280_pressure;Samples;Min_cycle;Max_cycle;Signal;HPM_P1;HPM_P2
2023/09/21 00:00:17;;;;;;;7.00;1.92;;;;;;;-145.69;60.29;52072.09;5123162;28;20262;-82
2023/09/21 00:02:49;;;;;;;2.75;1.70;;;;;;;-145.69;61.28;52054.25;5126081;27;20593;-82
2023/09/21 00:05:23;;;;;;;3.25;1.50;;;;;;;-145.69;60.72;52050.31;5140110;27;20235;-82
2023/09/21 00:07:52;;;;;;;7.03;1.80;;;;;;;-145.69;60.59;52060.22;5143568;27;20651;-82
2023/09/21 00:10:22;;;;;;;4.00;1.80;;;;;;;-145.69;60.59;52056.25;5143194;27;20193;-82
2023/09/21 00:12:52;;;;;;;2.70;1.60;;;;;;;-145.69;59.96;52032.47;5122611;27;20220;-81
2023/09/21 00:15:30;;;;;;;2.35;1.50;;;;;;;-145.69;60.15;52024.56;5121675;28;20197;-82
2023/09/21 00:17:59;;;;;;;4.03;1.50;;;;;;;-145.69;59.55;52030.50;5120083;28;20231;-81
2023/09/21 00:20:33;;;;;;;3.50;1.77;;;;;;;-145.69;59.75;52044.38;5118063;28;20212;-83
2023/09/21 00:23:06;;;;;;;5.30;1.75;;;;;;;-145.69;59.45;52064.16;5121609;27;20242;-82
2023/09/21 00:25:33;;;;;;;4.53;1.80;;;;;;;-145.69;59.58;52076.03;5123802;28;20271;-82
2023/09/21 00:27:59;;;;;;;3.00;1.55;;;;;;;-145.69;59.26;52046.34;5121434;28;20231;-82
2023/09/21 00:30:29;;;;;;;2.55;1.58;;;;;;;-145.69;59.92;52040.41;5121774;28;20247;-82
2023/09/21 00:32:55;;;;;;;2.50;1.55;;;;;;;-145.69;59.13;52050.31;5125915;27;20196;-82
2023/09/21 00:35:23;;;;;;;4.38;1.75;;;;;;;-145.69;59.54;52046.34;5137545;27;20204;-82
2023/09/21 00:38:05;;;;;;;3.55;1.75;;;;;;;-145.69;59.96;52038.44;5136744;27;20919;-82
2023/09/21 00:40:38;;;;;;;4.00;1.63;;;;;;;-145.69;59.79;52042.38;5141647;27;20238;-82
2023/09/21 00:43:06;;;;;;;3.60;1.75;;;;;;;-145.69;59.94;52064.16;5144748;27;20204;-81
2023/09/21 00:45:48;;;;;;;5.15;1.85;;;;;;;-145.69;59.83;52074.06;5139932;27;20732;-82
2023/09/21 00:48:21;;;;;;;2.15;1.40;;;;;;;-145.69;60.09;52064.16;5140612;27;20200;-82
2023/09/21 00:50:49;;;;;;;2.30;1.45;;;;;;;-145.69;60.39;52040.41;5140848;27;20197;-81
2023/09/21 00:53:20;;;;;;;5.38;1.70;;;;;;;-145.69;60.61;52036.44;5131651;27;20204;-81
2023/09/21 00:55:51;;;;;;;2.83;1.70;;;;;;;-145.69;61.00;52028.53;5120322;28;20325;-81
2023/09/21 00:58:22;;;;;;;2.40;1.80;;;;;;;-145.69;60.56;52050.31;5117205;28;20205;-81
2023/09/21 01:00:51;;;;;;;4.43;1.90;;;;;;;-145.69;60.19;52016.66;5118692;28;20609;-82
2023/09/21 01:03:24;;;;;;;3.58;1.52;;;;;;;-145.69;60.22;52040.41;5128374;28;20197;-82
2023/09/21 01:05:51;;;;;;;3.13;1.50;;;;;;;-145.69;59.49;52032.47;5127383;27;20327;-81
2023/09/21 01:08:28;;;;;;;4.03;1.73;;;;;;;-145.69;59.78;52080.00;5114577;28;20280;-82
2023/09/21 01:11:07;;;;;;;1.65;1.27;;;;;;;-145.69;59.49;52004.75;5118756;28;20220;-81
2023/09/21 01:13:35;;;;;;;3.90;1.70;;;;;;;-145.69;61.04;52068.13;5115659;28;20486;-81
2023/09/21 01:16:03;;;;;;;4.13;1.60;;;;;;;-145.69;60.14;52060.22;5117539;28;20664;-82
2023/09/21 01:18:30;;;;;;;2.25;1.38;;;;;;;-145.69;59.73;52052.28;5116809;28;20324;-82
2023/09/21 01:21:04;;;;;;;3.85;1.55;;;;;;;-145.69;60.58;52048.31;5118358;28;20201;-82
2023/09/21 01:23:36;;;;;;;5.57;1.58;;;;;;;-145.69;59.70;52052.28;5133382;27;20200;-81
2023/09/21 01:26:10;;;;;;;3.75;1.40;;;;;;;-145.69;59.85;52060.22;5123765;27;20217;-81
2023/09/21 01:28:40;;;;;;;3.05;1.60;;;;;;;-145.69;59.66;52040.41;5125813;27;20739;-81
2023/09/21 01:31:11;;;;;;;2.80;1.63;;;;;;;-145.69;59.58;52036.44;5125449;27;20567;-82
2023/09/21 01:33:38;;;;;;;2.90;1.52;;;;;;;-145.69;59.51;52036.44;5106633;28;20190;-81
2023/09/21 01:36:12;;;;;;;4.07;1.60;;;;;;;-145.69;59.48;52048.31;5115337;27;20233;-81
2023/09/21 01:38:52;;;;;;;3.50;1.65;;;;;;;-145.69;59.23;52044.38;5103936;28;20596;-81
2023/09/21 01:41:19;;;;;;;4.15;1.70;;;;;;;-145.69;60.01;52056.25;5101631;28;20278;-81
2023/09/21 01:43:46;;;;;;;4.30;2.10;;;;;;;-145.69;60.24;52064.16;5104885;28;20284;-82
2023/09/21 01:46:18;;;;;;;2.28;1.42;;;;;;;-145.69;60.51;52054.25;5103247;28;20321;-81
2023/09/21 01:48:45;;;;;;;4.05;1.63;;;;;;;-145.69;60.84;52048.31;5104357;28;20201;-82
2023/09/21 01:51:12;;;;;;;1.73;1.55;;;;;;;-145.69;60.85;52052.28;5101259;28;20206;-81
2023/09/21 01:53:39;;;;;;;3.90;1.50;;;;;;;-145.69;61.19;52083.97;5129870;27;20197;-81
2023/09/21 01:56:08;;;;;;;4.00;1.90;;;;;;;-145.69;62.38;52050.31;5121906;27;20435;-82
2023/09/21 01:58:38;;;;;;;3.63;1.48;;;;;;;-145.69;61.90;52068.13;5126585;28;20201;-81
2023/09/21 02:01:06;;;;;;;2.47;1.55;;;;;;;-145.69;62.59;52068.13;5124130;28;20201;-81
2023/09/21 02:03:33;;;;;;;4.03;1.67;;;;;;;-145.69;62.44;52072.09;5121107;28;20206;-81
2023/09/21 02:06:02;;;;;;;2.85;1.60;;;;;;;-145.69;62.42;52068.13;5118082;28;20228;-80
2023/09/21 02:08:33;;;;;;;5.18;1.88;;;;;;;-145.69;62.56;52040.41;5117719;28;20205;-81
2023/09/21 02:11:00;;;;;;;2.88;1.70;;;;;;;-145.69;62.77;52046.34;5119721;28;20282;-81
2023/09/21 02:13:36;;;;;;;3.05;1.80;;;;;;;-145.69;62.02;52066.16;5120695;28;20201;-81
2023/09/21 02:16:03;;;;;;;2.83;1.70;;;;;;;-145.69;62.02;52064.16;5119969;28;20726;-80
2023/09/21 02:18:37;;;;;;;1.77;1.42;;;;;;;-145.69;61.99;52074.06;5116955;28;20274;-81
2023/09/21 02:21:08;;;;;;;3.83;1.92;;;;;;;-145.69;62.15;52074.06;5120922;28;20205;-81
2023/09/21 02:23:37;;;;;;;2.72;1.75;;;;;;;-145.69;61.41;52064.16;5132916;27;20196;-80
2023/09/21 02:26:07;;;;;;;2.65;1.60;;;;;;;-145.69;60.75;52046.34;5131091;27;20323;-82
2023/09/21 02:28:34;;;;;;;2.22;1.52;;;;;;;-145.69;60.58;52095.84;5123543;27;20284;-81
2023/09/21 02:31:11;;;;;;;2.63;1.60;;;;;;;-145.69;60.35;52044.38;5119018;28;20206;-81
2023/09/21 02:33:38;;;;;;;6.25;1.92;;;;;;;-145.69;60.20;52038.44;5119146;28;20589;-82
2023/09/21 02:36:13;;;;;;;4.53;1.85;;;;;;;-145.69;59.83;52093.88;5120037;28;20193;-81
2023/09/21 02:38:39;;;;;;;2.38;1.55;;;;;;;-145.69;59.98;52034.47;5121789;28;20678;-82
2023/09/21 02:41:09;;;;;;;6.18;1.67;;;;;;;-145.69;60.47;52036.44;5122021;28;20666;-81
2023/09/21 02:43:38;;;;;;;2.17;1.52;;;;;;;-145.69;59.89;52062.19;5120920;28;20581;-82
2023/09/21 02:46:08;;;;;;;2.58;1.63;;;;;;;-145.69;58.63;52066.16;5118153;28;20221;-82
2023/09/21 02:48:37;;;;;;;7.65;1.65;;;;;;;-145.69;58.47;52052.28;5118676;28;20547;-82
2023/09/21 02:51:04;;;;;;;4.35;1.67;;;;;;;-145.69;58.65;52060.22;5118264;28;20193;-81
2023/09/21 02:53:30;;;;;;;2.70;1.45;;;;;;;-145.69;58.38;52050.31;5117938;27;20203;-81
2023/09/21 02:55:59;;;;;;;4.80;1.70;;;;;;;-145.69;58.62;52044.38;5127586;27;20197;-80
2023/09/21 02:58:26;;;;;;;8.00;1.83;;;;;;;-145.69;58.52;52032.47;5137075;27;20197;-81
2023/09/21 03:00:54;;;;;;;2.92;1.50;;;;;;;-145.69;58.55;52064.16;5140475;27;20206;-81
2023/09/21 03:03:23;;;;;;;3.28;1.70;;;;;;;-145.69;58.22;52040.41;5137619;27;20619;-81
2023/09/21 03:05:52;;;;;;;3.40;1.48;;;;;;;-145.69;57.97;52028.53;5138409;27;20234;-82
2023/09/21 03:08:22;;;;;;;3.67;1.58;;;;;;;-145.69;58.33;52046.34;5138754;27;20196;-82
2023/09/21 03:10:53;;;;;;;8.25;1.90;;;;;;;-145.69;58.55;52040.41;5137241;27;20281;-82
2023/09/21 03:13:21;;;;;;;1.73;1.40;;;;;;;-145.69;58.92;52052.28;5131634;27;20224;-82
2023/09/21 03:15:52;;;;;;;3.30;1.50;;;;;;;-145.69;58.11;52044.38;5122049;28;20284;-81
2023/09/21 03:18:21;;;;;;;6.10;1.60;;;;;;;-145.69;58.08;52046.34;5118935;28;20622;-81
2023/09/21 03:20:48;;;;;;;3.28;1.63;;;;;;;-145.69;57.38;52052.28;5119774;28;20197;-81
2023/09/21 03:23:15;;;;;;;4.43;1.60;;;;;;;-145.69;56.81;52040.41;5133045;27;20233;-81
2023/09/21 03:25:49;;;;;;;3.33;1.70;;;;;;;-145.69;56.60;52028.53;5139821;27;20220;-82
2023/09/21 03:28:24;;;;;;;2.00;1.50;;;;;;;-145.69;57.04;52014.66;5141542;27;20291;-81
2023/09/21 03:30:53;;;;;;;5.43;1.60;;;;;;;-145.69;57.48;52036.44;5121234;27;20205;-81
2023/09/21 03:33:22;;;;;;;5.05;1.40;;;;;;;-145.69;56.97;52062.19;5116566;28;20206;-81
2023/09/21 03:35:54;;;;;;;4.63;1.67;;;;;;;-145.69;57.83;52044.38;5116654;28;20231;-82
2023/09/21 03:38:23;;;;;;;6.85;1.88;;;;;;;-145.69;58.36;52040.41;5115166;28;20205;-81
2023/09/21 03:40:50;;;;;;;2.15;1.45;;;;;;;-145.69;58.53;52022.59;5115239;28;20588;-81
2023/09/21 03:43:18;;;;;;;2.70;1.25;;;;;;;-145.69;59.27;52020.59;5116907;27;20193;-82
2023/09/21 03:45:48;;;;;;;2.22;1.55;;;;;;;-145.69;59.82;52044.38;5119232;28;20243;-82
2023/09/21 03:48:15;;;;;;;4.60;1.70;;;;;;;-145.69;60.66;52068.13;5137134;27;20192;-82
2023/09/21 03:50:47;;;;;;;4.03;1.70;;;;;;;-145.69;61.49;52032.47;5140546;27;20263;-81
2023/09/21 03:53:17;;;;;;;6.47;1.83;;;;;;;-145.69;62.45;52048.31;5141196;27;20245;-82
2023/09/21 03:55:47;;;;;;;3.08;1.70;;;;;;;-145.69;62.09;52068.13;5138527;27;20200;-82
2023/09/21 03:58:14;;;;;;;3.25;2.00;;;;;;;-145.69;62.08;52022.59;5138947;27;20350;-82
2023/09/21 04:00:46;;;;;;;5.65;2.08;;;;;;;-145.69;62.26;52080.00;5137869;27;20201;-82
2023/09/21 04:03:13;;;;;;;1.85;1.65;;;;;;;-145.69;63.05;52074.06;5140090;27;20201;-82
2023/09/21 04:05:42;;;;;;;6.18;1.65;;;;;;;-145.69;63.17;52050.31;5140449;27;20706;-82
2023/09/21 04:08:10;;;;;;;2.65;1.80;;;;;;;-145.69;63.17;52060.22;5140025;27;20200;-81
2023/09/21 04:10:37;;;;;;;3.20;2.03;;;;;;;-145.69;63.34;52054.25;5117267;27;20222;-81
2023/09/21 04:13:03;;;;;;;4.35;1.50;;;;;;;-145.69;62.46;52044.38;5095715;28;20198;-81
2023/09/21 04:15:31;;;;;;;4.05;1.80;;;;;;;-145.69;63.05;52044.38;5096200;28;20653;-81
2023/09/21 04:18:09;;;;;;;4.80;1.90;;;;;;;-145.69;63.13;52064.16;5124076;27;20220;-81
2023/09/21 04:20:40;;;;;;;3.58;1.60;;;;;;;-145.69;63.59;52064.16;5134934;27;20663;-81
2023/09/21 04:23:11;;;;;;;4.45;1.60;;;;;;;-145.69;63.98;52056.25;5124606;27;20201;-81
2023/09/21 04:25:38;;;;;;;5.43;2.25;;;;;;;-145.69;64.30;52048.31;5114490;27;20644;-82
2023/09/21 04:28:06;;;;;;;4.78;2.15;;;;;;;-145.69;64.23;52083.97;5114047;28;20292;-81
2023/09/21 04:30:34;;;;;;;2.33;1.67;;;;;;;-145.69;64.81;52064.16;5115232;28;20197;-82
2023/09/21 04:33:01;;;;;;;2.38;1.60;;;;;;;-145.69;64.94;52060.22;5116523;28;20201;-81
2023/09/21 04:35:30;;;;;;;2.08;1.40;;;;;;;-145.69;65.24;52087.94;5115333;28;20237;-82
2023/09/21 04:37:58;;;;;;;4.75;1.58;;;;;;;-145.69;65.24;52068.13;5114217;28;20197;-81
2023/09/21 04:40:27;;;;;;;3.47;1.90;;;;;;;-145.69;64.87;52068.13;5113996;28;20205;-82
2023/09/21 04:42:54;;;;;;;3.90;2.05;;;;;;;-145.69;65.04;52062.19;5116132;27;20251;-82
2023/09/21 04:45:21;;;;;;;4.40;2.20;;;;;;;-145.69;65.03;52054.25;5134377;27;20220;-82
2023/09/21 04:47:53;;;;;;;2.47;1.75;;;;;;;-145.69;64.33;52036.44;5121861;27;20317;-81
2023/09/21 04:50:21;;;;;;;3.92;2.03;;;;;;;-145.69;64.67;52070.09;5130254;27;20185;-81
2023/09/21 04:52:50;;;;;;;3.47;1.42;;;;;;;-145.69;64.86;52060.22;5134988;27;20257;-82
2023/09/21 04:55:19;;;;;;;4.18;1.90;;;;;;;-145.69;65.97;52091.88;5133698;27;20524;-81
2023/09/21 04:57:52;;;;;;;4.10;2.00;;;;;;;-145.69;65.36;52068.13;5134377;27;20205;-82
2023/09/21 05:00:18;;;;;;;4.75;1.80;;;;;;;-145.69;65.01;52030.50;5135665;27;20575;-81
2023/09/21 05:02:45;;;;;;;4.07;2.00;;;;;;;-145.69;65.26;52091.88;5136231;27;20204;-82
2023/09/21 05:05:15;;;;;;;3.10;1.60;;;;;;;-145.69;64.86;52054.25;5134759;27;20559;-82
2023/09/21 05:07:41;;;;;;;4.50;2.00;;;;;;;-145.69;64.36;52068.13;5134546;27;20228;-81
2023/09/21 05:10:12;;;;;;;2.97;1.80;;;;;;;-145.69;65.18;52064.16;5135643;27;20295;-82
2023/09/21 05:12:41;;;;;;;3.97;1.95;;;;;;;-145.69;64.97;52095.84;5124383;27;20666;-81
2023/09/21 05:15:14;;;;;;;3.42;2.13;;;;;;;-145.69;64.92;52064.16;5134984;27;20193;-82
2023/09/21 05:17:42;;;;;;;2.67;1.63;;;;;;;-145.69;64.66;52089.91;5135447;27;20235;-82
2023/09/21 05:20:12;;;;;;;3.92;1.60;;;;;;;-145.69;64.44;52083.97;5136599;27;20201;-81
2023/09/21 05:22:40;;;;;;;3.22;1.90;;;;;;;-145.69;64.71;52099.81;5138490;27;20211;-81
2023/09/21 05:25:07;;;;;;;4.15;1.88;;;;;;;-145.69;64.78;52074.06;5135421;27;20597;-81
2023/09/21 05:27:33;;;;;;;4.70;1.50;;;;;;;-145.69;64.73;52072.09;5135544;27;20281;-81
2023/09/21 05:30:00;;;;;;;6.32;1.90;;;;;;;-145.69;64.60;52070.09;5134805;27;20197;-82
2023/09/21 05:32:32;;;;;;;3.08;1.90;;;;;;;-145.69;64.66;52083.97;5119027;27;20197;-82
2023/09/21 05:35:01;;;;;;;5.30;1.90;;;;;;;-145.69;64.89;52056.25;5113926;28;20212;-82
2023/09/21 05:37:30;;;;;;;2.78;1.60;;;;;;;-145.69;64.67;52083.97;5117591;28;20197;-82
2023/09/21 05:39:58;;;;;;;6.68;1.65;;;;;;;-145.69;64.76;52080.00;5113846;28;20205;-81
2023/09/21 05:42:25;;;;;;;5.45;1.80;;;;;;;-145.69;64.24;52048.31;5126700;28;20201;-82
2023/09/21 05:44:52;;;;;;;2.95;1.83;;;;;;;-145.69;64.19;52056.25;5136043;27;20625;-82
2023/09/21 05:47:20;;;;;;;3.35;1.65;;;;;;;-145.69;64.28;52068.13;5134818;27;20220;-83
2023/09/21 05:49:58;;;;;;;3.03;1.80;;;;;;;-145.69;63.96;52062.19;5134127;27;20652;-81
2023/09/21 05:52:25;;;;;;;4.18;1.65;;;;;;;-145.69;64.94;52087.94;5139505;27;20245;-81
2023/09/21 05:54:52;;;;;;;3.78;1.67;;;;;;;-145.69;64.70;52056.25;5137830;27;20619;-81
2023/09/21 05:57:18;;;;;;;4.10;2.05;;;;;;;-145.69;64.47;52054.25;5134375;27;20237;-82
2023/09/21 05:59:46;;;;;;;3.03;1.80;;;;;;;-145.69;64.31;52060.22;5133985;27;20201;-82
2023/09/21 06:02:22;;;;;;;4.75;1.65;;;;;;;-145.69;64.50;52076.03;5134863;27;20291;-82
2023/09/21 06:04:52;;;;;;;2.45;1.60;;;;;;;-145.69;64.04;52072.09;5134044;27;20283;-82
2023/09/21 06:07:18;;;;;;;2.88;1.70;;;;;;;-145.69;64.33;52068.13;5134791;27;20695;-82
2023/09/21 06:09:51;;;;;;;3.60;1.60;;;;;;;-145.69;64.10;52085.94;5139272;27;20207;-81
2023/09/21 06:12:18;;;;;;;2.50;1.60;;;;;;;-145.69;64.15;52036.44;5130020;27;20707;-81
2023/09/21 06:14:44;;;;;;;1.85;1.48;;;;;;;-145.69;63.97;52083.97;5141262;27;20694;-82
2023/09/21 06:17:13;;;;;;;2.25;1.65;;;;;;;-145.69;63.56;52072.09;5139907;27;20192;-81
2023/09/21 06:19:40;;;;;;;5.03;1.70;;;;;;;-145.69;62.71;52076.03;5135054;27;20197;-82
2023/09/21 06:22:08;;;;;;;2.63;1.73;;;;;;;-145.69;63.19;52036.44;5117040;28;20213;-82
2023/09/21 06:24:35;;;;;;;5.32;1.70;;;;;;;-145.69;62.58;52048.31;5117306;28;20263;-82
2023/09/21 06:27:01;;;;;;;3.45;1.70;;;;;;;-145.69;62.91;52056.25;5117436;28;20225;-82
2023/09/21 06:29:34;;;;;;;5.65;1.60;;;;;;;-145.69;61.84;52064.16;5121040;28;20204;-82
2023/09/21 06:32:07;;;;;;;2.60;1.40;;;;;;;-145.69;62.47;52083.97;5119189;28;20209;-82
2023/09/21 06:34:36;;;;;;;2.95;1.42;;;;;;;-145.69;61.48;52044.38;5120584;28;20225;-82
2023/09/21 06:37:03;;;;;;;3.08;1.83;;;;;;;-145.69;61.29;52064.16;5118615;28;20254;-82
2023/09/21 06:39:32;;;;;;;2.95;1.55;;;;;;;-145.69;60.75;52052.28;5122143;28;20204;-82
2023/09/21 06:42:06;;;;;;;2.45;1.88;;;;;;;-145.69;60.74;52040.41;5127943;27;20204;-81
2023/09/21 06:44:33;;;;;;;4.90;1.67;;;;;;;-145.69;60.92;52024.56;5125589;27;20189;-82
2023/09/21 06:47:00;;;;;;;1.73;1.40;;;;;;;-145.69;60.86;52091.88;5120112;28;20221;-82
2023/09/21 06:49:30;;;;;;;2.47;1.40;;;;;;;-145.69;60.86;52030.50;5117126;27;20642;-82
2023/09/21 06:51:58;;;;;;;4.78;1.50;;;;;;;-145.69;60.43;52064.16;5137904;27;20189;-81
2023/09/21 06:54:28;;;;;;;2.20;1.42;;;;;;;-145.69;60.37;52024.56;5138404;27;20212;-82
2023/09/21 06:57:03;;;;;;;1.90;1.30;;;;;;;-145.69;59.76;52056.25;5138743;27;20193;-82
2023/09/21 06:59:30;;;;;;;1.80;1.30;;;;;;;-145.69;59.79;52056.25;5137391;27;20204;-82
2023/09/21 07:01:56;;;;;;;3.38;1.40;;;;;;;-145.69;59.42;52034.47;5138970;27;20688;-82
2023/09/21 07:04:25;;;;;;;2.28;1.30;;;;;;;-145.69;59.40;52044.38;5138728;27;20200;-82
2023/09/21 07:06:51;;;;;;;1.65;1.23;;;;;;;-145.69;59.20;52004.75;5136433;27;20646;-82
2023/09/21 07:09:20;;;;;;;1.38;1.10;;;;;;;-145.69;59.57;52026.53;5136266;27;20207;-82
2023/09/21 07:11:50;;;;;;;1.92;1.33;;;;;;;-145.69;59.14;52012.69;5128085;27;20635;-82
2023/09/21 07:14:18;;;;;;;2.33;1.42;;;;;;;-145.69;59.71;52016.66;5116215;28;20202;-82
2023/09/21 07:16:45;;;;;;;0.80;0.80;;;;;;;-145.69;59.18;51979.03;5116944;27;20262;-82
2023/09/21 07:19:14;;;;;;;1.70;1.50;;;;;;;-145.69;59.38;51984.97;5115281;28;20259;-82
2023/09/21 07:21:42;;;;;;;3.55;1.33;;;;;;;-145.69;59.11;52028.53;5114950;28;20197;-82
2023/09/21 07:24:09;;;;;;;1.80;1.25;;;;;;;-145.69;59.12;52020.59;5116224;28;20208;-82
2023/09/21 07:26:38;;;;;;;4.50;1.33;;;;;;;-145.69;58.80;52012.69;5115465;27;20201;-82
2023/09/21 07:29:08;;;;;;;2.45;1.30;;;;;;;-145.69;57.40;51981.00;5115809;28;20270;-82
2023/09/21 07:31:36;;;;;;;2.20;1.38;;;;;;;-145.69;56.87;51984.97;5127516;27;20295;-83
2023/09/21 07:34:03;;;;;;;2.38;1.23;;;;;;;-145.69;56.15;52012.69;5139071;27;20201;-83
2023/09/21 07:36:32;;;;;;;1.48;1.10;;;;;;;-145.69;55.40;51984.97;5140012;27;20288;-83
2023/09/21 07:38:59;;;;;;;2.25;1.42;;;;;;;-145.69;55.05;51988.91;5137526;27;20201;-82
2023/09/21 07:41:26;;;;;;;2.67;1.50;;;;;;;-145.69;54.74;52004.75;5138212;27;20203;-83
2023/09/21 07:43:52;;;;;;;2.95;1.20;;;;;;;-145.69;54.58;51984.97;5135648;27;20193;-82
2023/09/21 07:46:22;;;;;;;2.70;1.27;;;;;;;-145.69;54.33;51969.13;5124122;27;20194;-82
2023/09/21 07:48:51;;;;;;;2.58;1.58;;;;;;;-145.69;53.63;51967.13;5115673;28;20236;-82
2023/09/21 07:51:19;;;;;;;3.55;1.20;;;;;;;-145.69;53.32;51951.28;5130565;27;20234;-81
2023/09/21 07:53:45;;;;;;;2.30;1.35;;;;;;;-145.69;52.21;51951.28;5135192;27;20230;-83
2023/09/21 07:56:16;;;;;;;1.70;1.40;;;;;;;-145.69;50.34;51941.41;5135232;27;20711;-83
2023/09/21 07:58:43;;;;;;;1.67;1.15;;;;;;;-145.69;49.20;51949.31;5135213;27;20659;-82
2023/09/21 08:01:09;;;;;;;1.70;1.10;;;;;;;-145.69;47.77;51951.28;5136127;27;20550;-82
2023/09/21 08:03:36;;;;;;;3.13;1.40;;;;;;;-145.69;47.05;51963.19;5125854;27;20197;-83
2023/09/21 08:06:04;;;;;;;1.80;1.20;;;;;;;-145.69;46.54;51901.78;5136472;27;20290;-83
2023/09/21 08:08:31;;;;;;;3.40;1.30;;;;;;;-145.69;45.78;51933.47;5134777;27;20289;-83
2023/09/21 08:10:58;;;;;;;1.83;1.35;;;;;;;-145.69;45.54;51943.38;5135604;27;20651;-82
2023/09/21 08:13:26;;;;;;;3.35;1.60;;;;;;;-145.69;45.76;51943.38;5134044;27;20197;-82
2023/09/21 08:15:53;;;;;;;3.28;1.17;;;;;;;-145.69;45.38;51933.47;5134738;27;20197;-82
2023/09/21 08:18:19;;;;;;;2.75;1.40;;;;;;;-145.69;44.52;51937.44;5131068;27;20228;-82
2023/09/21 08:20:46;;;;;;;1.40;1.13;;;;;;;-145.69;44.39;51941.41;5115596;27;20193;-82
2023/09/21 08:23:21;;;;;;;1.77;1.10;;;;;;;-145.69;43.45;51933.47;5134070;27;20197;-82
2023/09/21 08:25:48;;;;;;;1.67;1.10;;;;;;;-145.69;42.47;51913.69;5134500;27;20196;-81
2023/09/21 08:28:19;;;;;;;1.90;1.15;;;;;;;-145.69;41.29;51901.78;5134101;27;20240;-82
2023/09/21 08:30:49;;;;;;;2.10;1.20;;;;;;;-145.69;40.80;51903.78;5134465;27;20289;-82
2023/09/21 08:33:22;;;;;;;4.60;1.30;;;;;;;-145.69;41.02;51925.56;5134119;27;20224;-81
2023/09/21 08:35:50;;;;;;;1.40;1.20;;;;;;;-145.69;41.11;51899.81;5134390;27;20232;-82
2023/09/21 08:38:18;;;;;;;3.22;1.27;;;;;;;-145.69;40.55;51901.78;5134151;27;20595;-82
2023/09/21 08:40:49;;;;;;;1.10;0.90;;;;;;;-145.69;40.29;51901.78;5134393;27;20228;-83
2023/09/21 08:43:25;;;;;;;1.50;1.20;;;;;;;-145.69;39.23;51874.06;5116703;27;20235;-82
2023/09/21 08:45:55;;;;;;;1.85;1.00;;;;;;;-145.69;39.14;51893.88;5113671;28;20280;-83
2023/09/21 08:48:26;;;;;;;2.53;1.00;;;;;;;-145.69;39.76;51933.47;5113942;28;20292;-83
2023/09/21 08:50:55;;;;;;;2.70;1.10;;;;;;;-145.69;37.55;51905.75;5114741;28;20720;-82
2023/09/21 08:53:24;;;;;;;2.53;1.00;;;;;;;-145.69;38.00;51893.88;5116348;27;20197;-83
2023/09/21 08:55:52;;;;;;;1.85;1.02;;;;;;;-145.69;37.83;51947.34;5113683;28;20286;-82
2023/09/21 08:58:24;;;;;;;1.77;1.20;;;;;;;-145.69;37.50;51917.63;5113494;28;20250;-83
2023/09/21 09:00:58;;;;;;;1.70;1.05;;;;;;;-145.69;36.91;51895.84;5113772;28;20231;-82
2023/09/21 09:03:35;;;;;;;2.90;1.25;;;;;;;-145.69;37.25;51878.03;5115789;28;20205;-83
2023/09/21 09:06:01;;;;;;;3.55;1.15;;;;;;;-145.69;36.34;51897.84;5115353;28;20210;-83
2023/09/21 09:08:31;;;;;;;2.70;1.15;;;;;;;-145.69;37.52;51866.16;5114171;28;20232;-82
2023/09/21 09:11:01;;;;;;;3.03;1.20;;;;;;;-145.69;37.30;51870.13;5117098;28;20198;-83
2023/09/21 09:13:40;;;;;;;1.98;0.90;;;;;;;-145.69;36.73;51882.00;5119672;28;20189;-83
2023/09/21 09:16:33;;;;;;;2.13;1.23;;;;;;;-145.69;38.09;51826.56;5135872;27;20200;-83
2023/09/21 09:19:05;;;;;;;1.58;0.80;;;;;;;-145.69;37.65;51864.16;5134622;27;20252;-83
2023/09/21 09:21:37;;;;;;;2.63;1.00;;;;;;;-145.69;37.76;51838.44;5128225;27;20201;-82
2023/09/21 09:24:08;;;;;;;4.88;1.20;;;;;;;-145.69;37.45;51874.06;5114978;28;20201;-82
2023/09/21 09:26:35;;;;;;;1.17;1.00;;;;;;;-145.69;37.89;51834.47;5117412;28;20720;-83
2023/09/21 09:29:22;;;;;;;3.35;1.30;;;;;;;-145.69;37.45;51858.22;5117843;28;20315;-83
2023/09/21 09:31:49;;;;;;;2.00;1.25;;;;;;;-145.69;36.51;51856.25;5119062;28;20293;-83
2023/09/21 09:34:22;;;;;;;3.70;1.30;;;;;;;-145.69;36.93;51870.13;5120076;28;20576;-82
2023/09/21 09:36:51;;;;;;;1.88;1.15;;;;;;;-145.69;36.90;51866.16;5118029;28;20645;-83
2023/09/21 09:39:28;;;;;;;2.97;1.00;;;;;;;-145.69;37.34;51840.41;5104369;28;20202;-82
2023/09/21 09:41:55;;;;;;;2.42;1.10;;;;;;;-145.69;37.64;51878.03;5118350;28;20219;-81
2023/09/21 09:44:27;;;;;;;3.20;1.20;;;;;;;-145.69;37.84;51858.22;5129202;27;20221;-83
2023/09/21 09:47:04;;;;;;;1.90;1.15;;;;;;;-145.69;37.83;51866.16;5133581;28;20197;-83
2023/09/21 09:49:38;;;;;;;1.85;1.20;;;;;;;-145.69;37.87;51866.16;5131052;28;20541;-83
2023/09/21 09:52:22;;;;;;;1.30;1.20;;;;;;;-145.69;37.79;51874.06;5128190;28;20216;-84
2023/09/21 09:54:56;;;;;;;2.53;1.30;;;;;;;-145.69;36.72;51840.41;5126972;27;20197;-82
2023/09/21 09:57:25;;;;;;;5.78;1.20;;;;;;;-145.69;37.00;51858.22;5130375;28;20205;-83
2023/09/21 09:59:58;;;;;;;4.05;1.13;;;;;;;-145.69;35.88;51852.28;5129873;28;20197;-83
2023/09/21 10:02:27;;;;;;;2.50;1.30;;;;;;;-145.69;36.23;51828.53;5130166;28;20236;-83
2023/09/21 10:04:54;;;;;;;1.83;0.95;;;;;;;-145.69;36.88;51858.22;5123788;27;20193;-83
2023/09/21 10:07:27;;;;;;;1.65;1.08;;;;;;;-145.69;36.80;51834.47;5122811;28;20197;-83
2023/09/21 10:10:04;;;;;;;4.60;1.35;;;;;;;-145.69;35.15;51838.44;5127602;27;20197;-83
2023/09/21 10:12:37;;;;;;;2.63;1.20;;;;;;;-145.69;35.57;51838.44;5137150;27;20199;-83
2023/09/21 10:15:16;;;;;;;3.63;1.73;;;;;;;-145.69;36.50;51846.34;5146085;27;20288;-84
2023/09/21 10:17:48;;;;;;;1.90;1.10;;;;;;;-145.69;36.77;51858.22;5139990;27;20571;-82
2023/09/21 10:20:27;;;;;;;1.40;1.00;;;;;;;-145.69;37.21;51852.28;5124888;28;20263;-83
2023/09/21 10:23:01;;;;;;;1.55;1.13;;;;;;;-145.69;37.20;51822.59;5122869;28;20205;-83
2023/09/21 10:25:41;;;;;;;2.40;1.38;;;;;;;-145.69;37.70;51814.66;5119050;27;20200;-83
2023/09/21 10:28:45;;;;;;;3.30;1.23;;;;;;;-145.69;36.01;51860.22;5121398;28;20232;-83
2023/09/21 10:31:30;;;;;;;1.60;1.15;;;;;;;-145.69;36.33;51810.72;5122828;28;20200;-83
2023/09/21 10:34:12;;;;;;;2.63;1.10;;;;;;;-145.69;36.48;51814.66;5124640;28;20209;-83
2023/09/21 10:36:49;;;;;;;1.70;0.95;;;;;;;-145.69;35.98;51820.59;5128923;27;20201;-84
2023/09/21 10:39:37;;;;;;;2.47;1.33;;;;;;;-145.69;35.47;51800.81;5143051;27;20205;-84
2023/09/21 10:42:37;;;;;;;2.55;1.27;;;;;;;-145.69;34.93;51806.75;5136850;27;20189;-82
2023/09/21 10:45:07;;;;;;;1.10;0.90;;;;;;;-145.69;35.42;51810.72;5120599;28;20199;-84
2023/09/21 10:47:49;;;;;;;4.28;1.30;;;;;;;-145.69;35.06;51808.72;5120279;28;20718;-83
2023/09/21 10:50:21;;;;;;;2.20;1.02;;;;;;;-145.69;36.07;51786.94;5121121;27;20193;-83
2023/09/21 10:52:50;;;;;;;2.80;1.20;;;;;;;-145.69;35.15;51796.84;5130217;27;20194;-84
2023/09/21 10:55:18;;;;;;;5.22;1.25;;;;;;;-145.69;34.79;51771.09;5117939;28;20213;-84
2023/09/21 10:58:06;;;;;;;3.53;1.00;;;;;;;-145.69;34.44;51765.16;5118201;28;20197;-84
2023/09/21 11:00:38;;;;;;;1.98;0.90;;;;;;;-145.69;33.77;51786.94;5117946;28;20602;-84
2023/09/21 11:03:05;;;;;;;3.83;1.45;;;;;;;-145.69;33.67;51775.06;5119992;27;20200;-83
2023/09/21 11:05:36;;;;;;;4.38;1.50;;;;;;;-145.69;34.66;51747.34;5132354;27;20211;-83
2023/09/21 11:08:04;;;;;;;3.42;1.10;;;;;;;-145.69;34.33;51814.66;5121654;27;20323;-84
2023/09/21 11:10:31;;;;;;;1.90;1.10;;;;;;;-145.69;33.95;51757.25;5118314;28;20250;-85
2023/09/21 11:13:00;;;;;;;3.20;1.20;;;;;;;-145.69;33.72;51751.31;5118280;28;20201;-84
2023/09/21 11:15:30;;;;;;;4.03;1.20;;;;;;;-145.69;34.12;51763.19;5119763;27;20563;-84
2023/09/21 11:17:59;;;;;;;1.35;1.00;;;;;;;-145.69;33.43;51781.00;5119394;27;20247;-84
2023/09/21 11:20:26;;;;;;;2.28;1.10;;;;;;;-145.69;33.59;51739.44;5116863;28;20201;-84
2023/09/21 11:22:55;;;;;;;2.83;1.02;;;;;;;-145.69;33.60;51777.03;5118577;28;20567;-84
2023/09/21 11:25:23;;;;;;;1.42;1.08;;;;;;;-145.69;33.88;51786.94;5121125;27;20605;-84
2023/09/21 11:27:54;;;;;;;2.15;1.20;;;;;;;-145.69;34.18;51739.44;5142501;27;20232;-83
2023/09/21 11:30:24;;;;;;;9.15;1.70;;;;;;;-145.69;34.90;51822.59;5137597;27;20237;-84